createdAt,value
2023-04-16T00:01:30.769Z,4.65
2023-04-16T00:03:57.650Z,4.64
2023-04-16T00:06:24.792Z,4.56
2023-04-16T00:08:51.593Z,4.54
2023-04-16T00:11:20.900Z,4.55
2023-04-16T00:13:48.453Z,4.60
2023-04-16T00:16:15.040Z,4.50
2023-04-16T00:18:41.750Z,4.49
2023-04-16T00:21:08.304Z,4.42
2023-04-16T00:23:35.063Z,4.42
2023-04-16T00:26:02.639Z,4.53
2023-04-16T00:28:29.088Z,4.58
2023-04-16T00:30:56.632Z,4.62
2023-04-16T00:33:23.174Z,4.70
2023-04-16T00:35:49.667Z,4.70
2023-04-16T00:38:17.773Z,4.69
2023-04-16T00:40:45.308Z,4.73
2023-04-16T00:43:13.542Z,4.70
2023-04-16T00:45:41.074Z,4.70
2023-04-16T00:48:07.491Z,4.88
2023-04-16T00:50:34.398Z,4.89
2023-04-16T00:53:01.198Z,4.90
2023-04-16T00:55:27.722Z,4.91
2023-04-16T00:57:55.453Z,4.77
2023-04-16T01:00:21.916Z,4.65
2023-04-16T01:02:51.028Z,4.68
2023-04-16T01:05:18.275Z,4.64
2023-04-16T01:07:44.804Z,4.49
2023-04-16T01:10:11.603Z,4.38
2023-04-16T01:12:38.135Z,4.32
2023-04-16T01:15:04.798Z,4.17
2023-04-16T01:17:31.373Z,4.15
2023-04-16T01:19:57.989Z,4.12
2023-04-16T01:22:24.794Z,4.10
2023-04-16T01:24:51.446Z,4.09
2023-04-16T01:27:17.909Z,4.07
2023-04-16T01:29:44.714Z,4.05
2023-04-16T01:32:11.153Z,4.04
2023-04-16T01:34:37.646Z,4.08
2023-04-16T01:37:04.290Z,4.03
2023-04-16T01:39:30.811Z,3.93
2023-04-16T01:41:57.269Z,3.82
2023-04-16T01:44:23.776Z,3.96
2023-04-16T01:46:50.303Z,4.02
2023-04-16T01:49:17.049Z,3.96
2023-04-16T01:51:43.544Z,3.91
2023-04-16T01:54:10.522Z,3.83
2023-04-16T01:56:37.071Z,3.82
2023-04-16T01:59:03.617Z,3.81
2023-04-16T02:01:30.183Z,3.83
2023-04-16T02:03:56.724Z,3.82
2023-04-16T02:06:23.718Z,3.81
2023-04-16T02:08:50.124Z,3.82
2023-04-16T02:11:16.579Z,3.79
2023-04-16T02:13:43.132Z,3.83
2023-04-16T02:16:12.634Z,3.85
2023-04-16T02:18:39.166Z,3.77
2023-04-16T02:21:05.604Z,3.63
2023-04-16T02:23:32.092Z,3.65
2023-04-16T02:25:58.555Z,3.70
2023-04-16T02:28:26.182Z,3.64
2023-04-16T02:30:52.711Z,3.60
2023-04-16T02:33:19.597Z,3.65
2023-04-16T02:35:46.274Z,3.67
2023-04-16T02:38:12.940Z,3.72
2023-04-16T02:40:39.382Z,3.76
2023-04-16T02:43:05.847Z,3.82
2023-04-16T02:45:32.447Z,3.81
2023-04-16T02:47:58.955Z,3.72
2023-04-16T02:50:25.667Z,3.81
2023-04-16T02:53:01.020Z,3.80
2023-04-16T02:55:27.894Z,3.75
2023-04-16T02:57:54.359Z,3.68
2023-04-16T03:00:21.086Z,3.73
2023-04-16T03:02:47.629Z,3.67
2023-04-16T03:05:14.608Z,3.60
2023-04-16T03:07:41.025Z,3.60
2023-04-16T03:10:07.474Z,3.60
2023-04-16T03:12:33.883Z,3.60
2023-04-16T03:15:00.412Z,3.59
2023-04-16T03:17:27.052Z,3.64
2023-04-16T03:19:53.482Z,3.70
2023-04-16T03:22:20.013Z,3.74
2023-04-16T03:24:46.556Z,3.75
2023-04-16T03:27:13.211Z,3.79
2023-04-16T03:29:42.094Z,3.82
2023-04-16T03:32:08.522Z,3.82
2023-04-16T03:34:35.008Z,3.80
2023-04-16T03:37:01.583Z,3.81
2023-04-16T03:39:28.129Z,3.81
2023-04-16T03:41:54.589Z,3.84
2023-04-16T03:44:21.042Z,3.88
2023-04-16T03:46:47.583Z,3.74
2023-04-16T03:49:14.174Z,3.76
2023-04-16T03:51:40.568Z,3.82
2023-04-16T03:54:07.393Z,3.83
2023-04-16T03:56:33.966Z,3.81
2023-04-16T03:59:00.386Z,3.82
2023-04-16T04:01:26.846Z,3.82
2023-04-16T04:03:53.464Z,3.77
2023-04-16T04:06:20.453Z,3.80
2023-04-16T04:08:46.915Z,3.80
2023-04-16T04:11:13.602Z,3.81
2023-04-16T04:13:40.188Z,3.81
2023-04-16T04:16:06.655Z,3.83
2023-04-16T04:18:33.345Z,3.93
2023-04-16T04:20:59.745Z,3.93
2023-04-16T04:23:26.222Z,3.98
2023-04-16T04:25:53.190Z,3.94
2023-04-16T04:28:20.758Z,3.94
2023-04-16T04:30:48.039Z,3.98
2023-04-16T04:33:14.573Z,3.98
2023-04-16T04:35:41.125Z,4.00
2023-04-16T04:38:07.601Z,4.03
2023-04-16T04:40:34.079Z,4.04
2023-04-16T04:43:00.608Z,4.11
2023-04-16T04:45:28.458Z,4.11
2023-04-16T04:47:56.168Z,4.05
2023-04-16T04:50:22.681Z,4.04
2023-04-16T04:52:49.382Z,4.10
2023-04-16T04:55:16.050Z,4.13
2023-04-16T04:57:42.469Z,4.18
2023-04-16T05:00:08.999Z,4.18
2023-04-16T05:02:35.613Z,4.13
2023-04-16T05:05:02.310Z,4.14
2023-04-16T05:07:28.756Z,4.11
2023-04-16T05:09:55.206Z,4.12
2023-04-16T05:12:21.668Z,4.15
2023-04-16T05:14:48.157Z,4.14
2023-04-16T05:17:14.614Z,4.12
2023-04-16T05:19:41.305Z,4.26
2023-04-16T05:22:07.703Z,4.28
2023-04-16T05:24:34.271Z,4.30
2023-04-16T05:27:01.010Z,4.29
2023-04-16T05:29:27.478Z,4.36
2023-04-16T05:31:53.926Z,4.34
2023-04-16T05:34:20.407Z,4.39
2023-04-16T05:36:46.845Z,4.40
2023-04-16T05:39:13.664Z,4.40
2023-04-16T05:41:40.102Z,4.45
2023-04-16T05:44:06.571Z,4.42
2023-04-16T05:46:33.109Z,4.42
2023-04-16T05:48:59.700Z,4.47
2023-04-16T05:51:26.353Z,4.49
2023-04-16T05:53:52.802Z,4.49
2023-04-16T05:56:19.289Z,4.53
2023-04-16T05:58:45.655Z,4.55
2023-04-16T06:01:12.201Z,4.60
2023-04-16T06:03:38.887Z,4.62
2023-04-16T06:06:05.692Z,4.59
2023-04-16T06:08:32.202Z,4.62
2023-04-16T06:10:58.671Z,4.62
2023-04-16T06:13:25.192Z,4.71
2023-04-16T06:15:51.807Z,4.74
2023-04-16T06:18:18.406Z,4.78
2023-04-16T06:20:44.960Z,4.87
2023-04-16T06:23:11.594Z,4.91
2023-04-16T06:25:38.033Z,4.96
2023-04-16T06:28:04.439Z,5.05
2023-04-16T06:30:30.978Z,5.11
2023-04-16T06:32:57.902Z,5.22
2023-04-16T06:35:24.623Z,5.29
2023-04-16T06:37:51.348Z,5.33
2023-04-16T06:40:17.852Z,5.38
2023-04-16T06:42:45.530Z,5.40
2023-04-16T06:45:12.340Z,5.47
2023-04-16T06:47:38.981Z,5.50
2023-04-16T06:50:05.498Z,5.63
2023-04-16T06:52:31.941Z,5.68
2023-04-16T06:54:58.375Z,5.71
2023-04-16T06:57:27.894Z,5.72
2023-04-16T06:59:54.925Z,5.79
2023-04-16T07:02:21.482Z,5.97
2023-04-16T07:04:48.034Z,5.77
2023-04-16T07:07:14.472Z,5.79
2023-04-16T07:09:40.981Z,5.98
2023-04-16T07:12:08.164Z,6.18
2023-04-16T07:14:34.616Z,6.24
2023-04-16T07:17:01.064Z,6.13
2023-04-16T07:19:27.505Z,6.17
2023-04-16T07:21:53.984Z,6.27
2023-04-16T07:24:22.642Z,6.03
2023-04-16T07:26:49.288Z,6.24
2023-04-16T07:29:16.717Z,6.03
2023-04-16T07:31:43.264Z,6.31
2023-04-16T07:34:09.991Z,6.39
2023-04-16T07:36:36.516Z,6.26
2023-04-16T07:39:03.036Z,6.40
2023-04-16T07:41:29.612Z,6.30
2023-04-16T07:43:56.538Z,6.25
2023-04-16T07:46:24.743Z,6.40
2023-04-16T07:48:51.466Z,6.40
2023-04-16T07:51:18.159Z,6.48
2023-04-16T07:53:44.742Z,6.41
2023-04-16T07:56:11.650Z,6.33
2023-04-16T07:58:38.585Z,6.43
2023-04-16T08:01:06.065Z,6.55
2023-04-16T08:03:32.988Z,6.66
2023-04-16T08:05:59.489Z,6.58
2023-04-16T08:08:26.061Z,6.55
2023-04-16T08:10:52.596Z,6.54
2023-04-16T08:13:19.509Z,6.43
2023-04-16T08:15:46.186Z,6.41
2023-04-16T08:18:12.947Z,6.41
2023-04-16T08:20:39.587Z,6.60
2023-04-16T08:23:05.970Z,6.36
2023-04-16T08:25:32.506Z,6.52
2023-04-16T08:27:58.951Z,6.68
2023-04-16T08:30:25.451Z,6.90
2023-04-16T08:32:51.972Z,6.87
2023-04-16T08:35:18.721Z,6.76
2023-04-16T08:37:45.310Z,7.02
2023-04-16T08:40:11.947Z,7.38
2023-04-16T08:42:38.372Z,7.57
2023-04-16T08:45:04.873Z,7.45
2023-04-16T08:47:31.356Z,7.42
2023-04-16T08:49:58.508Z,7.47
2023-04-16T08:52:25.104Z,7.44
2023-04-16T08:54:56.617Z,7.41
2023-04-16T08:57:23.658Z,7.53
2023-04-16T08:59:51.098Z,7.43
2023-04-16T09:02:17.706Z,7.54
2023-04-16T09:04:44.518Z,7.57
2023-04-16T09:07:11.556Z,7.70
2023-04-16T09:09:38.042Z,7.81
2023-04-16T09:12:04.729Z,7.90
2023-04-16T09:14:32.210Z,8.05
2023-04-16T09:17:01.516Z,7.93
2023-04-16T09:19:29.349Z,7.90
2023-04-16T09:21:56.092Z,7.84
2023-04-16T09:24:22.617Z,7.70
2023-04-16T09:26:49.034Z,7.79
2023-04-16T09:29:15.634Z,7.91
2023-04-16T09:31:42.233Z,7.86
2023-04-16T09:34:08.912Z,7.86
2023-04-16T09:36:35.414Z,8.01
2023-04-16T09:39:09.286Z,7.82
2023-04-16T09:41:36.079Z,7.97
2023-04-16T09:44:04.227Z,7.97
2023-04-16T09:46:31.768Z,8.01
2023-04-16T09:48:59.398Z,7.97
2023-04-16T09:51:26.063Z,7.99
2023-04-16T09:53:52.555Z,8.14
2023-04-16T09:56:19.135Z,8.04
2023-04-16T09:58:45.628Z,8.11
2023-04-16T10:01:12.187Z,8.18
2023-04-16T10:03:38.992Z,8.25
2023-04-16T10:06:05.737Z,8.63
2023-04-16T10:08:33.599Z,8.78
2023-04-16T10:11:00.184Z,8.93
2023-04-16T10:13:26.677Z,8.47
2023-04-16T10:15:56.924Z,8.81
2023-04-16T10:18:26.768Z,8.90
2023-04-16T10:20:53.675Z,8.70
2023-04-16T10:23:20.177Z,8.79
2023-04-16T10:25:46.578Z,8.45
2023-04-16T10:28:13.093Z,7.99
2023-04-16T10:30:39.649Z,8.17
2023-04-16T10:33:07.495Z,8.18
2023-04-16T10:35:34.588Z,8.09
2023-04-16T10:38:01.168Z,8.36
2023-04-16T10:40:27.667Z,8.35
2023-04-16T10:42:54.585Z,8.48
2023-04-16T10:45:21.241Z,8.51
2023-04-16T10:47:47.787Z,8.20
2023-04-16T10:50:15.138Z,8.39
2023-04-16T10:52:41.650Z,8.45
2023-04-16T10:55:08.268Z,8.36
2023-04-16T10:57:34.689Z,8.41
2023-04-16T11:00:01.150Z,8.50
2023-04-16T11:02:28.586Z,8.53
2023-04-16T11:04:55.255Z,8.52
2023-04-16T11:07:23.014Z,8.71
2023-04-16T11:09:49.449Z,8.66
2023-04-16T11:12:16.123Z,8.78
2023-04-16T11:14:42.960Z,8.25
2023-04-16T11:17:09.762Z,8.45
2023-04-16T11:19:36.244Z,8.80
2023-04-16T11:22:02.893Z,8.84
2023-04-16T11:24:29.620Z,9.07
2023-04-16T11:26:56.098Z,8.95
2023-04-16T11:29:22.547Z,8.64
2023-04-16T11:31:51.079Z,8.61
2023-04-16T11:34:17.886Z,8.44
2023-04-16T11:36:44.753Z,8.59
2023-04-16T11:39:11.516Z,8.89
2023-04-16T11:41:38.175Z,9.00
2023-04-16T11:44:04.638Z,8.82
2023-04-16T11:46:31.100Z,8.69
2023-04-16T11:48:57.667Z,8.76
2023-04-16T11:51:24.231Z,8.71
2023-04-16T11:53:50.952Z,8.88
2023-04-16T11:56:17.620Z,8.98
2023-04-16T11:58:44.098Z,9.13
2023-04-16T12:01:10.775Z,9.10
2023-04-16T12:03:38.216Z,8.90
2023-04-16T12:06:04.726Z,9.01
2023-04-16T12:08:31.432Z,9.02
2023-04-16T12:10:58.171Z,9.36
2023-04-16T12:13:24.652Z,9.64
2023-04-16T12:15:51.465Z,9.82
2023-04-16T12:18:18.436Z,9.69
2023-04-16T12:20:44.933Z,9.69
2023-04-16T12:23:11.817Z,9.74
2023-04-16T12:25:38.623Z,9.71
2023-04-16T12:28:05.045Z,9.86
2023-04-16T12:30:31.797Z,9.90
2023-04-16T12:32:59.139Z,9.35
2023-04-16T12:41:00.171Z,9.08
2023-04-16T12:43:27.120Z,9.51
2023-04-16T12:45:55.845Z,9.03
2023-04-16T12:48:22.326Z,9.26
2023-04-16T12:50:48.802Z,9.22
2023-04-16T12:53:15.447Z,9.24
2023-04-16T12:55:41.970Z,9.30
2023-04-16T12:58:09.815Z,9.53
2023-04-16T13:00:37.576Z,9.57
2023-04-16T13:03:04.699Z,9.68
2023-04-16T13:05:31.863Z,9.77
2023-04-16T13:07:58.476Z,9.67
2023-04-16T13:13:15.808Z,9.84
2023-04-16T13:15:42.449Z,9.96
2023-04-16T13:18:09.596Z,9.80
2023-04-16T13:20:37.292Z,9.81
2023-04-16T13:23:03.921Z,9.74
2023-04-16T13:25:30.409Z,9.80
2023-04-16T13:27:57.147Z,9.44
2023-04-16T14:26:09.527Z,9.59
2023-04-16T14:28:36.624Z,9.84
2023-04-16T14:31:03.177Z,9.84
2023-04-16T14:33:30.053Z,9.87
2023-04-16T14:35:57.152Z,9.73
2023-04-16T14:38:23.703Z,9.57
2023-04-16T14:40:50.440Z,9.67
2023-04-16T14:43:16.986Z,9.56
2023-04-16T14:45:43.703Z,9.37
2023-04-16T14:48:10.184Z,9.26
2023-04-16T14:50:37.124Z,8.99
2023-04-16T14:53:03.680Z,9.32
2023-04-16T14:55:30.116Z,9.16
2023-04-16T14:57:57.530Z,9.27
2023-04-16T15:00:24.065Z,9.23
2023-04-16T15:02:50.954Z,9.21
2023-04-16T15:05:17.892Z,9.01
2023-04-16T15:07:44.573Z,8.86
2023-04-16T15:10:11.118Z,9.37
2023-04-16T15:12:37.599Z,9.47
2023-04-16T15:15:04.059Z,9.39
2023-04-16T15:17:30.731Z,9.28
2023-04-16T15:19:58.390Z,9.25
2023-04-16T15:22:24.897Z,9.16
2023-04-16T15:24:51.582Z,9.26
2023-04-16T15:27:19.554Z,9.20
2023-04-16T15:29:46.507Z,9.53
2023-04-16T15:32:13.256Z,9.44
2023-04-16T15:34:40.191Z,8.98
2023-04-16T15:37:06.765Z,9.27
2023-04-16T15:39:34.866Z,9.35
2023-04-16T15:42:04.020Z,9.41
2023-04-16T15:44:32.229Z,9.37
2023-04-16T15:46:59.184Z,9.27
2023-04-16T15:49:25.822Z,9.32
2023-04-16T15:51:52.718Z,9.31
2023-04-16T15:54:19.409Z,9.23
2023-04-16T15:56:46.219Z,9.28
2023-04-16T15:59:15.748Z,9.33
2023-04-16T16:01:42.347Z,9.26
2023-04-16T16:04:10.547Z,9.33
2023-04-16T16:06:37.395Z,9.22
2023-04-16T16:09:04.293Z,9.20
2023-04-16T16:11:32.209Z,9.01
2023-04-16T16:13:59.507Z,9.26
2023-04-16T16:16:26.243Z,9.21
2023-04-16T16:18:53.206Z,9.18
2023-04-16T16:21:21.245Z,9.38
2023-04-16T16:23:48.170Z,9.30
2023-04-16T16:26:15.244Z,9.04
2023-04-16T16:28:43.238Z,8.97
2023-04-16T16:31:10.300Z,9.05
2023-04-16T16:33:39.082Z,9.06
2023-04-16T16:36:09.393Z,8.97
2023-04-16T16:38:37.013Z,9.00
2023-04-16T16:41:04.355Z,9.15
2023-04-16T16:43:31.855Z,9.31
2023-04-16T16:45:59.005Z,9.18
2023-04-16T16:48:26.027Z,9.26
2023-04-16T16:50:53.727Z,9.39
2023-04-16T16:53:20.662Z,9.40
2023-04-16T16:55:47.694Z,9.42
2023-04-16T16:58:17.900Z,9.38
2023-04-16T17:00:46.017Z,9.01
2023-04-16T17:03:13.332Z,8.87
2023-04-16T17:05:40.420Z,8.97
2023-04-16T17:08:08.398Z,8.94
2023-04-16T17:10:38.507Z,8.94
2023-04-16T17:13:05.441Z,8.95
2023-04-16T17:15:32.834Z,9.05
2023-04-16T17:17:59.947Z,8.98
2023-04-16T17:20:26.880Z,8.99
2023-04-16T17:22:54.105Z,9.00
2023-04-16T17:25:20.721Z,8.95
2023-04-16T17:27:47.767Z,8.79
2023-04-16T17:30:14.726Z,8.78
2023-04-16T17:32:41.960Z,8.86
2023-04-16T17:35:10.571Z,8.64
2023-04-16T17:40:18.524Z,8.77
2023-04-16T17:42:46.224Z,8.69
2023-04-16T17:45:13.581Z,8.68
2023-04-16T17:47:41.282Z,8.47
2023-04-16T17:50:08.414Z,8.42
2023-04-16T17:52:35.248Z,8.21
2023-04-16T17:55:02.119Z,8.55
2023-04-16T17:57:29.289Z,8.70
2023-04-16T17:59:58.633Z,8.62
2023-04-16T18:02:25.770Z,8.69
2023-04-16T18:04:53.236Z,8.61
2023-04-16T18:07:22.754Z,8.46
2023-04-16T18:09:49.321Z,8.57
2023-04-16T18:12:16.361Z,8.59
2023-04-16T18:14:43.284Z,8.73
2023-04-16T18:17:10.526Z,8.87
2023-04-16T18:19:37.056Z,8.69
2023-04-16T18:22:04.026Z,8.52
2023-04-16T18:24:31.210Z,8.42
2023-04-16T18:26:57.620Z,8.32
2023-04-16T18:29:25.478Z,8.55
2023-04-16T18:31:55.103Z,8.55
2023-04-16T18:34:22.580Z,8.31
2023-04-16T18:36:49.474Z,8.07
2023-04-16T18:39:16.598Z,8.15
2023-04-16T18:41:43.863Z,8.02
2023-04-16T18:44:10.480Z,7.99
2023-04-16T18:46:37.444Z,7.60
2023-04-16T18:49:05.724Z,7.81
2023-04-16T18:51:37.095Z,7.65
2023-04-16T18:54:04.147Z,7.88
2023-04-16T18:56:31.579Z,7.82
2023-04-16T18:58:58.128Z,7.72
2023-04-16T19:01:25.271Z,7.82
2023-04-16T19:03:52.390Z,7.90
2023-04-16T19:06:19.883Z,7.75
2023-04-16T19:08:46.449Z,7.68
2023-04-16T19:11:13.397Z,7.60
2023-04-16T19:13:40.881Z,7.82
2023-04-16T19:16:07.897Z,7.75
2023-04-16T19:18:35.465Z,7.67
2023-04-16T19:21:02.517Z,7.68
2023-04-16T19:23:29.147Z,7.67
2023-04-16T19:25:56.226Z,7.76
2023-04-16T19:28:23.219Z,7.87
2023-04-16T19:30:59.190Z,7.64
2023-04-16T19:33:26.289Z,7.69
2023-04-16T19:35:53.337Z,7.87
2023-04-16T19:38:20.304Z,7.71
2023-04-16T19:40:48.295Z,7.48
2023-04-16T19:43:15.274Z,7.41
2023-04-16T19:45:42.842Z,7.48
2023-04-16T19:48:10.711Z,7.35
2023-04-16T19:50:37.888Z,7.44
2023-04-16T19:53:04.403Z,7.64
2023-04-16T19:55:32.606Z,7.64
2023-04-16T19:57:59.590Z,7.42
2023-04-16T20:00:26.600Z,7.50
2023-04-16T20:02:53.784Z,7.43
2023-04-16T20:05:20.713Z,7.44
2023-04-16T20:07:47.907Z,7.36
2023-04-16T20:10:16.692Z,7.30
2023-04-16T20:12:43.825Z,7.38
2023-04-16T20:15:10.509Z,7.25
2023-04-16T20:17:37.298Z,7.37
2023-04-16T20:20:04.364Z,7.45
2023-04-16T20:22:30.828Z,7.40
2023-04-16T20:24:57.708Z,7.51
2023-04-16T20:27:24.841Z,7.50
2023-04-16T20:29:51.496Z,7.50
2023-04-16T20:32:18.017Z,7.38
2023-04-16T20:34:44.974Z,7.41
2023-04-16T20:37:11.483Z,7.37
2023-04-16T20:39:38.153Z,7.40
2023-04-16T20:42:04.875Z,7.50
2023-04-16T20:44:32.838Z,7.48
2023-04-16T20:46:59.564Z,7.26
2023-04-16T20:49:26.007Z,7.34
2023-04-16T20:51:53.028Z,7.47
2023-04-16T20:54:19.568Z,7.12
2023-04-16T20:56:46.000Z,6.96
2023-04-16T20:59:12.686Z,7.05
2023-04-16T21:01:39.653Z,7.26
2023-04-16T21:04:06.392Z,7.22
2023-04-16T21:06:33.129Z,7.13
2023-04-16T21:08:59.568Z,7.12
2023-04-16T21:11:26.061Z,7.39
2023-04-16T21:13:52.508Z,7.01
2023-04-16T21:16:19.194Z,7.35
2023-04-16T21:18:45.693Z,7.54
2023-04-16T21:21:12.061Z,7.32
2023-04-16T21:23:38.478Z,7.51
2023-04-16T21:26:04.922Z,7.50
2023-04-16T21:28:31.720Z,7.32
2023-04-16T21:30:58.217Z,7.46
2023-04-16T21:33:24.775Z,7.02
2023-04-16T21:35:51.180Z,7.05
2023-04-16T21:38:17.672Z,7.26
2023-04-16T21:40:44.074Z,7.37
2023-04-16T21:43:10.517Z,7.19
2023-04-16T21:45:36.991Z,7.33
2023-04-16T21:48:03.449Z,7.20
2023-04-16T21:50:29.929Z,7.17
2023-04-16T21:52:56.494Z,7.22
2023-04-16T21:55:22.920Z,7.33
2023-04-16T21:57:49.406Z,7.37
2023-04-16T22:00:15.831Z,7.37
2023-04-16T22:02:43.031Z,7.15
2023-04-16T22:05:09.669Z,6.97
2023-04-16T22:07:36.616Z,6.88
2023-04-16T22:10:03.121Z,7.01
2023-04-16T22:12:29.578Z,6.85
2023-04-16T22:15:02.352Z,6.76
2023-04-16T22:17:29.811Z,7.15
2023-04-16T22:19:56.316Z,7.00
2023-04-16T22:22:22.750Z,6.85
2023-04-16T22:24:49.156Z,7.03
2023-04-16T22:27:16.182Z,6.98
2023-04-16T22:29:42.625Z,6.96
2023-04-16T22:32:09.154Z,6.83
2023-04-16T22:34:35.668Z,6.71
2023-04-16T22:37:02.498Z,6.72
2023-04-16T22:39:28.980Z,6.60
2023-04-16T22:41:55.616Z,6.78
2023-04-16T22:44:22.150Z,6.64
2023-04-16T22:46:48.586Z,6.80
2023-04-16T22:49:15.178Z,6.88
2023-04-16T22:51:41.592Z,6.95
2023-04-16T22:54:08.008Z,6.82
2023-04-16T22:56:34.535Z,6.82
2023-04-16T22:59:00.955Z,6.61
2023-04-16T23:01:27.442Z,6.85
2023-04-16T23:03:53.963Z,6.75
2023-04-16T23:06:20.421Z,6.49
2023-04-16T23:08:46.850Z,6.63
2023-04-16T23:11:13.596Z,6.60
2023-04-16T23:13:39.999Z,6.61
2023-04-16T23:16:06.590Z,6.59
2023-04-16T23:18:33.167Z,6.79
2023-04-16T23:20:59.639Z,6.79
2023-04-16T23:23:26.276Z,6.62
2023-04-16T23:25:52.741Z,6.46
2023-04-16T23:28:19.556Z,6.73
2023-04-16T23:30:45.949Z,6.76
2023-04-16T23:33:12.579Z,6.80
2023-04-16T23:35:39.021Z,6.57
2023-04-16T23:38:05.473Z,6.78
2023-04-16T23:40:31.984Z,6.75
2023-04-16T23:42:58.428Z,6.94
2023-04-16T23:45:24.895Z,6.98
2023-04-16T23:47:51.449Z,6.82
2023-04-16T23:50:17.883Z,6.84
2023-04-16T23:52:44.350Z,6.96
2023-04-16T23:55:10.780Z,6.90
2023-04-16T23:57:37.139Z,6.78
